Time;durP1;ratioP1;P1;durP2;ratioP2;P2;SDS_P1;SDS_P2;PMS_P1;PMS_P2;Temp;Humidity;BMP_temperature;BMP_pressure;BME280_temperature;BME280_humidity;BME280_pressure;Samples;Min_cycle;Max_cycle;Signal;HPM_P1;HPM_P2
2023/05/31 00:02:16;;;;;;;8.45;6.40;;;;;;;12.65;90.32;102548.63;4878612;29;20059;-91
2023/05/31 00:04:50;;;;;;;8.52;6.25;;;;;;;12.66;91.18;102552.97;4878787;29;20048;-91
2023/05/31 00:07:16;;;;;;;12.00;6.75;;;;;;;12.64;90.13;102557.31;4860041;29;20108;-91
2023/05/31 00:09:41;;;;;;;8.55;6.10;;;;;;;12.57;90.94;102552.13;4880289;29;20044;-91
2023/05/31 00:12:07;;;;;;;9.98;6.07;;;;;;;12.54;91.27;102547.84;4877918;29;20787;-92
2023/05/31 00:14:35;;;;;;;8.93;6.35;;;;;;;12.59;91.62;102553.88;4863896;29;20063;-91
2023/05/31 00:17:04;;;;;;;9.65;6.03;;;;;;;12.54;92.16;102552.16;4877689;29;20037;-91
2023/05/31 00:19:32;;;;;;;9.90;5.90;;;;;;;12.57;92.46;102552.13;4864983;29;20441;-92
2023/05/31 00:21:57;;;;;;;9.52;6.47;;;;;;;12.52;92.04;102553.91;4881975;29;20079;-92
2023/05/31 00:24:23;;;;;;;8.38;5.88;;;;;;;12.54;92.54;102553.03;4880906;29;20072;-91
2023/05/31 00:26:48;;;;;;;9.27;6.30;;;;;;;12.48;92.68;102547.00;4876869;29;20083;-91
2023/05/31 00:29:17;;;;;;;9.93;6.55;;;;;;;12.44;93.12;102537.47;4866175;29;20074;-92
2023/05/31 00:31:43;;;;;;;9.10;6.50;;;;;;;12.48;92.80;102547.88;4866355;29;20045;-91
2023/05/31 00:34:10;;;;;;;10.90;6.18;;;;;;;12.45;93.18;102547.00;4864408;29;20052;-92
2023/05/31 00:36:36;;;;;;;9.18;6.63;;;;;;;12.41;93.39;102546.16;4864005;29;20541;-91
2023/05/31 00:39:02;;;;;;;9.43;6.40;;;;;;;12.40;93.58;102540.97;4863220;29;20227;-92
2023/05/31 00:41:27;;;;;;;9.10;6.55;;;;;;;12.38;94.18;102540.97;4880419;29;20056;-92
2023/05/31 00:43:53;;;;;;;12.05;5.93;;;;;;;12.42;93.89;102550.47;4880756;29;20041;-93
2023/05/31 00:46:38;;;;;;;8.82;6.60;;;;;;;12.36;93.63;102541.81;4867087;29;20066;-92
2023/05/31 00:49:07;;;;;;;9.85;6.28;;;;;;;12.35;94.79;102546.16;4882348;29;20048;-92
2023/05/31 00:51:36;;;;;;;10.20;6.45;;;;;;;12.32;94.57;102540.13;4867392;29;20040;-93
2023/05/31 00:54:02;;;;;;;9.70;6.35;;;;;;;12.30;94.92;102547.91;4885206;29;20045;-92
2023/05/31 00:56:28;;;;;;;10.43;6.50;;;;;;;12.28;94.47;102554.88;4866035;29;20044;-92
2023/05/31 00:58:57;;;;;;;10.02;6.40;;;;;;;12.26;95.15;102548.81;4866963;29;20256;-93
2023/05/31 01:01:27;;;;;;;9.55;6.22;;;;;;;12.28;95.13;102560.06;4884027;29;20056;-92
2023/05/31 01:03:56;;;;;;;10.13;6.47;;;;;;;12.31;95.12;102556.59;4883886;29;20033;-92
2023/05/31 01:06:25;;;;;;;10.70;6.38;;;;;;;12.23;95.59;102548.81;4881609;29;20076;-92
2023/05/31 01:08:57;;;;;;;9.80;6.35;;;;;;;12.20;95.98;102547.09;4884734;29;20439;-92
2023/05/31 01:11:25;;;;;;;10.30;7.35;;;;;;;12.24;95.92;102568.75;4868315;29;20528;-91
2023/05/31 01:14:28;;;;;;;11.00;6.50;;;;;;;12.25;95.41;102563.53;4885595;29;20048;-92
2023/05/31 01:17:00;;;;;;;10.05;6.47;;;;;;;12.16;95.58;102560.09;4868466;29;20120;-92
2023/05/31 01:19:54;;;;;;;11.43;7.07;;;;;;;12.19;95.56;102560.09;4868047;29;20028;-92
2023/05/31 01:22:32;;;;;;;10.52;6.30;;;;;;;12.09;96.39;102548.84;4887178;29;20040;-91
2023/05/31 01:25:12;;;;;;;13.13;7.10;;;;;;;12.14;96.39;102570.50;4886392;29;20028;-93
2023/05/31 01:27:42;;;;;;;11.68;6.60;;;;;;;12.07;96.28;102565.34;4888354;29;20584;-92
2023/05/31 01:30:09;;;;;;;10.18;6.60;;;;;;;12.09;97.28;102558.38;4884647;29;20068;-92
2023/05/31 01:32:36;;;;;;;9.40;6.18;;;;;;;12.00;97.23;102550.63;4868443;29;20047;-93
2023/05/31 01:35:02;;;;;;;11.25;6.22;;;;;;;12.01;97.54;102560.97;4884151;29;20119;-92
2023/05/31 01:37:30;;;;;;;11.48;6.97;;;;;;;11.99;97.53;102559.28;4867697;29;20047;-93
2023/05/31 01:40:06;;;;;;;;;;;;;;;;;;;;;
2023/05/31 01:42:34;;;;;;;9.63;6.55;;;;;;;11.98;97.91;102557.53;4883221;29;20049;-92
2023/05/31 01:45:00;;;;;;;11.80;7.03;;;;;;;11.97;97.94;102550.59;4884415;29;20029;-92
2023/05/31 01:47:30;;;;;;;12.10;6.75;;;;;;;11.94;98.36;102546.28;4867736;29;20044;-92
2023/05/31 01:49:56;;;;;;;10.23;6.78;;;;;;;11.94;98.39;102546.28;4881275;29;20048;-92
2023/05/31 01:52:25;;;;;;;10.82;6.85;;;;;;;11.92;98.83;102547.16;4867003;29;20052;-92
2023/05/31 01:54:51;;;;;;;9.43;6.72;;;;;;;11.92;98.13;102549.75;4869691;29;20044;-92
2023/05/31 01:57:20;;;;;;;12.48;6.95;;;;;;;11.90;98.54;102543.69;4884714;29;20044;-92
2023/05/31 01:59:50;;;;;;;10.73;6.72;;;;;;;11.85;99.08;102541.13;4870578;29;21025;-92
2023/05/31 02:02:20;;;;;;;12.65;7.22;;;;;;;11.85;99.63;102541.13;4884477;29;20670;-93
2023/05/31 02:04:47;;;;;;;13.52;7.43;;;;;;;11.82;99.67;102535.91;4882185;29;20056;-93
2023/05/31 02:07:16;;;;;;;11.68;7.20;;;;;;;11.80;100.00;102538.50;4866055;29;20057;-93
2023/05/31 02:09:41;;;;;;;12.45;6.80;;;;;;;11.77;99.63;102530.72;4868989;29;20064;-92
2023/05/31 02:12:07;;;;;;;14.07;7.28;;;;;;;11.82;100.00;102533.31;4885395;29;20041;-92
2023/05/31 02:14:33;;;;;;;11.40;6.88;;;;;;;11.75;99.96;102532.44;4865080;29;20135;-92
2023/05/31 02:16:58;;;;;;;15.07;7.13;;;;;;;11.74;99.87;102543.72;4864205;29;20192;-92
2023/05/31 02:19:25;;;;;;;14.77;7.70;;;;;;;11.68;100.00;102528.09;4862004;29;20524;-93
2023/05/31 02:21:53;;;;;;;13.60;7.88;;;;;;;11.68;100.00;102529.84;4877896;29;21024;-91
2023/05/31 02:24:18;;;;;;;13.75;7.43;;;;;;;11.63;100.00;102519.47;4878148;29;20028;-93
2023/05/31 02:26:44;;;;;;;12.00;7.57;;;;;;;11.64;100.00;102521.19;4863852;29;20267;-93
2023/05/31 02:29:10;;;;;;;12.80;7.20;;;;;;;11.68;100.00;102542.81;4860313;29;20037;-92
2023/05/31 02:31:35;;;;;;;11.32;7.57;;;;;;;11.61;100.00;102530.69;4861919;29;20160;-91
2023/05/31 02:34:08;;;;;;;14.13;7.13;;;;;;;11.63;100.00;102534.19;4859161;29;20033;-92
2023/05/31 02:36:33;;;;;;;14.40;7.97;;;;;;;11.65;100.00;102529.84;4875898;29;20076;-92
2023/05/31 02:38:59;;;;;;;14.60;7.40;;;;;;;11.57;100.00;102524.66;4875871;29;20120;-92
2023/05/31 02:41:25;;;;;;;12.82;7.60;;;;;;;11.59;100.00;102530.72;4863299;29;20043;-93
2023/05/31 02:43:54;;;;;;;12.82;8.13;;;;;;;11.50;100.00;102509.94;4860651;29;20132;-92
2023/05/31 02:46:19;;;;;;;14.18;8.05;;;;;;;11.47;100.00;102521.19;4864874;29;20055;-93
2023/05/31 02:48:47;;;;;;;12.85;7.45;;;;;;;11.52;100.00;102528.13;4860326;29;20045;-92
2023/05/31 02:51:13;;;;;;;12.95;7.65;;;;;;;11.46;100.00;102529.00;4862192;29;20037;-91
2023/05/31 02:53:38;;;;;;;13.55;7.90;;;;;;;11.44;100.00;102525.53;4877172;29;20448;-92
2023/05/31 02:56:04;;;;;;;15.45;8.55;;;;;;;11.39;100.00;102522.94;4863670;29;20037;-92
2023/05/31 02:58:32;;;;;;;12.88;8.32;;;;;;;11.39;100.00;102529.88;4865046;29;20101;-92
2023/05/31 03:01:00;;;;;;;13.50;8.38;;;;;;;11.41;100.00;102522.94;4862898;29;20059;-92
2023/05/31 03:03:25;;;;;;;13.80;8.10;;;;;;;11.37;100.00;102532.47;4879369;29;20047;-92
2023/05/31 03:05:51;;;;;;;14.63;8.43;;;;;;;11.34;100.00;102519.47;4865573;29;20029;-92
2023/05/31 03:08:19;;;;;;;16.33;8.00;;;;;;;11.36;100.00;102519.47;4865996;29;20072;-92
2023/05/31 03:10:44;;;;;;;14.32;8.43;;;;;;;11.36;100.00;102524.66;4881133;29;20075;-92
2023/05/31 03:13:10;;;;;;;13.88;7.95;;;;;;;11.34;100.00;102535.03;4864797;29;20068;-93
2023/05/31 03:15:38;;;;;;;13.52;8.07;;;;;;;11.31;100.00;102535.06;4881844;29;20048;-92
2023/05/31 03:18:04;;;;;;;13.85;8.27;;;;;;;11.34;100.00;102544.56;4867835;29;20455;-92
2023/05/31 03:20:32;;;;;;;14.35;8.43;;;;;;;11.26;100.00;102526.38;4862112;29;20061;-92
2023/05/31 03:22:58;;;;;;;16.60;8.77;;;;;;;11.27;100.00;102527.25;4883440;29;20033;-92
2023/05/31 03:25:25;;;;;;;14.63;8.10;;;;;;;11.33;100.00;102540.22;4870260;29;20032;-92
2023/05/31 03:27:50;;;;;;;13.82;8.38;;;;;;;11.28;100.00;102534.19;4881500;29;20032;-92
2023/05/31 03:30:19;;;;;;;13.70;8.20;;;;;;;11.26;100.00;102535.94;4865973;29;20064;-91
2023/05/31 03:32:45;;;;;;;14.60;8.27;;;;;;;11.31;100.00;102544.56;4864782;29;20459;-92
2023/05/31 03:35:13;;;;;;;14.35;8.45;;;;;;;11.24;100.00;102532.47;4883329;29;20783;-92
2023/05/31 03:37:38;;;;;;;16.45;8.45;;;;;;;11.28;100.00;102537.63;4863923;29;20036;-92
2023/05/31 03:40:04;;;;;;;14.05;8.07;;;;;;;11.27;100.00;102533.31;4866439;29;20037;-92
2023/05/31 03:42:31;;;;;;;14.40;8.25;;;;;;;11.21;100.00;102512.53;4868903;29;20100;-92
2023/05/31 03:44:57;;;;;;;16.38;8.13;;;;;;;11.19;100.00;102513.44;4883411;29;20035;-92
2023/05/31 03:47:25;;;;;;;14.18;8.35;;;;;;;11.20;100.00;102525.50;4883245;29;20040;-92
2023/05/31 03:49:50;;;;;;;16.10;8.80;;;;;;;11.24;100.00;102528.13;4884354;29;20028;-92
2023/05/31 03:52:18;;;;;;;15.65;8.57;;;;;;;11.19;100.00;102516.03;4863024;29;20033;-92
2023/05/31 03:54:46;;;;;;;16.95;8.68;;;;;;;11.19;100.00;102519.44;4858147;29;20092;-92
2023/05/31 03:57:12;;;;;;;16.42;8.40;;;;;;;11.17;100.00;102512.56;4863962;29;20053;-92
2023/05/31 03:59:37;;;;;;;15.95;8.75;;;;;;;11.23;100.00;102512.56;4862165;29;20068;-92
2023/05/31 04:02:06;;;;;;;18.02;9.23;;;;;;;11.25;100.00;102524.69;4861760;29;20148;-91
2023/05/31 04:04:32;;;;;;;17.05;8.48;;;;;;;11.22;100.00;102531.56;4860251;29;20093;-92
2023/05/31 04:06:58;;;;;;;16.55;8.77;;;;;;;11.26;100.00;102523.78;4862122;29;20109;-92
2023/05/31 04:09:31;;;;;;;16.45;9.20;;;;;;;11.20;100.00;102520.31;4858496;29;20132;-92
2023/05/31 04:11:57;;;;;;;17.42;8.95;;;;;;;11.31;100.00;102529.00;4861479;29;20040;-92
2023/05/31 04:14:22;;;;;;;18.88;9.25;;;;;;;11.26;100.00;102521.19;4860185;29;20199;-92
2023/05/31 04:16:48;;;;;;;17.20;9.32;;;;;;;11.34;100.00;102528.97;4860530;29;20132;-92
2023/05/31 04:19:16;;;;;;;15.55;8.98;;;;;;;11.29;100.00;102520.34;4864678;29;20189;-91
2023/05/31 04:21:42;;;;;;;18.13;9.75;;;;;;;11.33;100.00;102524.66;4861224;29;20088;-91
2023/05/31 04:24:07;;;;;;;19.20;9.25;;;;;;;11.35;100.00;102522.94;4861582;29;20044;-90
2023/05/31 04:26:33;;;;;;;19.00;9.90;;;;;;;11.35;100.00;102528.13;4860869;29;20143;-91
2023/05/31 04:28:59;;;;;;;17.35;9.82;;;;;;;11.37;100.00;102524.69;4861593;29;20030;-91
2023/05/31 04:31:24;;;;;;;18.15;10.05;;;;;;;11.45;100.00;102535.06;4864028;29;20049;-91
2023/05/31 04:33:53;;;;;;;22.15;9.90;;;;;;;11.42;100.00;102522.94;4860105;29;20085;-91
2023/05/31 04:36:23;;;;;;;20.00;9.57;;;;;;;11.44;100.00;102526.41;4865214;29;20486;-90
2023/05/31 04:38:48;;;;;;;19.40;9.45;;;;;;;11.51;100.00;102527.25;4859932;29;20076;-90
2023/05/31 04:41:17;;;;;;;22.15;10.57;;;;;;;11.55;100.00;102526.38;4859859;29;20056;-91
2023/05/31 04:43:47;;;;;;;19.70;10.13;;;;;;;11.54;100.00;102522.06;4856799;29;20482;-91
2023/05/31 04:46:13;;;;;;;18.30;10.07;;;;;;;11.63;100.00;102529.84;4855994;29;20045;-91
2023/05/31 04:48:40;;;;;;;18.45;9.65;;;;;;;11.69;100.00;102534.16;4856932;29;20500;-93
2023/05/31 04:51:05;;;;;;;22.20;10.23;;;;;;;11.72;100.00;102531.56;4856512;29;20044;-93
2023/05/31 04:53:32;;;;;;;20.02;10.13;;;;;;;11.75;100.00;102529.00;4851240;29;20073;-92
2023/05/31 04:56:06;;;;;;;20.80;10.88;;;;;;;11.84;100.00;102544.56;4861048;29;20049;-92
2023/05/31 04:58:35;;;;;;;20.48;10.40;;;;;;;11.83;100.00;102538.50;4862765;29;20098;-92
2023/05/31 05:01:00;;;;;;;20.10;10.48;;;;;;;11.91;100.00;102535.91;4863452;29;20045;-92
2023/05/31 05:03:26;;;;;;;20.77;10.52;;;;;;;11.97;100.00;102543.69;4871033;29;20069;-92
2023/05/31 05:05:51;;;;;;;21.38;10.30;;;;;;;12.00;100.00;102533.28;4858221;29;20041;-91
2023/05/31 05:08:17;;;;;;;21.38;10.68;;;;;;;11.99;100.00;102528.97;4857328;29;20033;-92
2023/05/31 05:10:43;;;;;;;20.05;10.20;;;;;;;12.08;100.00;102533.25;4861732;29;20059;-92
2023/05/31 05:13:08;;;;;;;19.15;10.15;;;;;;;12.13;100.00;102532.38;4856547;29;20124;-92
2023/05/31 05:15:34;;;;;;;22.73;10.32;;;;;;;12.19;100.00;102528.91;4861702;29;20043;-92
2023/05/31 05:18:09;;;;;;;21.05;10.65;;;;;;;12.30;100.00;102528.84;4861841;29;20502;-92
2023/05/31 05:20:35;;;;;;;20.88;10.60;;;;;;;12.39;100.00;102528.81;4857292;29;20090;-93
2023/05/31 05:23:06;;;;;;;22.33;10.70;;;;;;;12.51;100.00;102545.22;4866086;29;20029;-92
2023/05/31 05:25:32;;;;;;;21.10;10.30;;;;;;;12.58;100.00;102546.94;4862201;29;20049;-93
2023/05/31 05:27:58;;;;;;;21.90;11.23;;;;;;;12.61;100.00;102543.47;4864575;29;20036;-94
2023/05/31 05:30:26;;;;;;;20.95;11.30;;;;;;;12.71;100.00;102541.66;4864736;29;20107;-93
2023/05/31 05:32:55;;;;;;;21.20;10.57;;;;;;;12.84;100.00;102540.72;4860143;29;20918;-92
2023/05/31 05:35:29;;;;;;;23.45;10.85;;;;;;;12.90;100.00;102538.94;4860383;29;20088;-92
2023/05/31 05:37:57;;;;;;;;;;;;;;;13.07;100.00;102557.94;4864074;29;20065;-93
2023/05/31 05:40:23;;;;;;;22.30;10.82;;;;;;;13.19;100.00;102559.63;4861443;29;19923;-93
2023/05/31 05:42:53;;;;;;;20.30;10.52;;;;;;;13.33;100.00;102546.50;4864243;29;20094;-93
2023/05/31 05:45:19;;;;;;;21.05;10.52;;;;;;;13.33;98.70;102531.75;4861633;29;20048;-93
2023/05/31 05:47:48;;;;;;;21.88;10.30;;;;;;;13.49;100.00;102555.06;4864976;29;20062;-93
2023/05/31 05:50:21;;;;;;;21.38;11.05;;;;;;;13.47;97.00;102544.66;4867125;29;20140;-93
2023/05/31 05:52:48;;;;;;;23.75;11.57;;;;;;;13.63;99.96;102550.59;4867504;29;20052;-93
2023/05/31 05:55:18;;;;;;;26.70;11.52;;;;;;;13.71;98.22;102538.38;4869133;29;20041;-93
2023/05/31 05:57:53;;;;;;;24.45;10.77;;;;;;;13.87;99.11;102539.94;4865841;29;20049;-93
2023/05/31 06:00:23;;;;;;;21.92;11.48;;;;;;;14.00;95.26;102545.88;4865940;29;20585;-91
2023/05/31 06:03:08;;;;;;;22.63;10.77;;;;;;;14.07;96.50;102542.31;4868390;29;20043;-94
2023/05/31 06:08:40;;;;;;;22.02;11.10;;;;;;;14.36;94.99;102550.69;4855035;29;20126;-94
2023/05/31 06:11:11;;;;;;;24.90;11.80;;;;;;;14.39;95.04;102553.31;4863894;29;20045;-94
2023/05/31 06:13:41;;;;;;;21.45;11.45;;;;;;;14.45;94.21;102552.38;4866795;29;20037;-93
2023/05/31 06:16:07;;;;;;;20.55;10.93;;;;;;;14.57;90.63;102547.84;4865981;29;20479;-94
2023/05/31 06:18:35;;;;;;;22.90;11.88;;;;;;;14.77;91.79;102552.78;4865998;29;20673;-92
2023/05/31 06:21:04;;;;;;;20.75;10.65;;;;;;;14.90;89.71;102543.03;4857364;29;20392;-92
2023/05/31 06:23:34;;;;;;;18.48;10.30;;;;;;;14.94;90.23;102539.53;4863184;29;20271;-94
2023/05/31 06:26:03;;;;;;;22.30;11.10;;;;;;;15.01;88.63;102552.44;4863192;29;20109;-93
2023/05/31 06:29:14;;;;;;;20.85;10.60;;;;;;;14.99;90.69;102538.56;4864487;29;20034;-94
2023/05/31 06:31:42;;;;;;;19.15;10.65;;;;;;;14.94;89.55;102542.13;4849173;29;20036;-93
2023/05/31 06:34:08;;;;;;;23.77;11.40;;;;;;;14.95;87.96;102549.06;4865177;29;20065;-93
2023/05/31 06:36:36;;;;;;;21.58;10.82;;;;;;;15.00;88.06;102549.88;4864596;29;20051;-92
2023/05/31 06:39:05;;;;;;;22.70;10.77;;;;;;;14.96;89.86;102542.94;4863246;29;20041;-94
2023/05/31 06:41:34;;;;;;;20.88;10.80;;;;;;;14.99;90.10;102538.56;4864303;29;20098;-91
2023/05/31 06:44:02;;;;;;;18.02;9.88;;;;;;;15.19;90.53;102555.66;4864361;29;20357;-92
2023/05/31 06:46:37;;;;;;;20.73;10.95;;;;;;;15.29;89.42;102546.78;4864315;29;20996;-91
2023/05/31 06:49:05;;;;;;;19.08;9.85;;;;;;;15.46;89.57;102560.47;4864475;29;20069;-93
2023/05/31 06:51:30;;;;;;;19.60;10.65;;;;;;;15.65;89.87;102547.97;4864312;29;20057;-93
2023/05/31 06:54:00;;;;;;;21.55;10.60;;;;;;;15.71;84.77;102546.09;4862719;29;20053;-92
2023/05/31 06:56:27;;;;;;;20.33;10.13;;;;;;;15.82;88.35;102553.78;4863729;29;20101;-93
2023/05/31 06:58:55;;;;;;;22.23;11.02;;;;;;;16.00;87.31;102556.03;4865046;29;20041;-91
2023/05/31 07:01:21;;;;;;;23.85;10.93;;;;;;;16.43;82.66;102549.97;4862325;29;20049;-92
2023/05/31 07:03:46;;;;;;;20.23;10.43;;;;;;;16.94;82.79;102553.22;4863796;29;20040;-91
2023/05/31 07:06:21;;;;;;;19.42;10.95;;;;;;;17.21;82.26;102552.59;4863576;29;20040;-91
2023/05/31 07:08:47;;;;;;;19.35;10.18;;;;;;;17.27;76.59;102546.34;4862056;29;20041;-91
2023/05/31 07:11:13;;;;;;;20.40;10.77;;;;;;;17.40;77.75;102546.91;4869523;29;20038;-91
2023/05/31 07:13:38;;;;;;;20.15;10.52;;;;;;;17.65;78.50;102561.16;4867760;29;20559;-91
2023/05/31 07:16:07;;;;;;;19.52;10.23;;;;;;;17.67;73.42;102549.72;4864774;29;20173;-91
2023/05/31 07:18:32;;;;;;;21.50;10.48;;;;;;;17.59;72.99;102541.16;4864517;29;20053;-92
2023/05/31 07:21:04;;;;;;;18.17;9.48;;;;;;;17.68;75.92;102553.19;4863835;29;20060;-91
2023/05/31 07:23:30;;;;;;;21.73;10.65;;;;;;;17.71;75.56;102535.63;4865041;29;20558;-92
2023/05/31 07:26:00;;;;;;;21.92;10.05;;;;;;;17.70;75.82;102530.41;4861828;29;20139;-92
2023/05/31 07:28:39;;;;;;;21.52;10.27;;;;;;;17.72;73.29;102541.75;4868505;29;20117;-92
2023/05/31 07:31:07;;;;;;;18.27;9.85;;;;;;;17.79;75.23;102540.69;4871135;29;20060;-92
2023/05/31 07:33:44;;;;;;;19.63;10.00;;;;;;;17.80;74.44;102537.16;4869474;29;20128;-91
2023/05/31 07:36:32;;;;;;;18.65;9.77;;;;;;;17.97;76.70;102526.19;4862357;29;20492;-91
2023/05/31 07:42:50;;;;;;;20.15;10.07;;;;;;;18.56;76.03;102528.91;4843644;29;20042;-91
2023/05/31 07:45:51;;;;;;;23.90;10.10;;;;;;;19.87;73.16;102520.19;4863751;29;20041;-91
2023/05/31 07:52:12;;;;;;;16.08;9.23;;;;;;;23.02;61.00;102518.31;4863680;29;20176;-92
2023/05/31 07:55:30;;;;;;;16.92;9.52;;;;;;;24.26;59.05;102513.66;4867400;29;20498;-92
2023/05/31 07:58:19;;;;;;;16.50;9.18;;;;;;;24.99;51.77;102517.50;4865369;29;20036;-92
2023/05/31 08:00:52;;;;;;;17.67;9.20;;;;;;;25.21;48.47;102515.34;4864726;29;20041;-92
2023/05/31 08:03:31;;;;;;;15.47;9.27;;;;;;;25.08;53.75;102517.00;4862945;29;20298;-91
2023/05/31 08:06:22;;;;;;;15.07;9.38;;;;;;;24.61;53.95;102519.66;4867591;29;21024;-93
2023/05/31 08:20:16;;;;;;;;;;;;;;;;;;;;;
2023/05/31 08:23:44;;;;;;;;;;;;;;;;;;;;;
2023/05/31 08:27:24;;;;;;;;;;;;;;;;;;;;;
2023/05/31 08:30:32;;;;;;;15.77;8.80;;;;;;;23.65;55.00;102500.13;4705586;30;20131;-95
2023/05/31 08:36:19;;;;;;;16.80;8.93;;;;;;;23.88;53.57;102495.34;4752214;30;20047;-94
2023/05/31 08:39:47;;;;;;;15.20;8.68;;;;;;;24.06;51.59;102492.66;4788803;29;20093;-94
2023/05/31 08:43:07;;;;;;;;;;;;;;;;;;;;;
2023/05/31 08:46:13;;;;;;;;;;;;;;;;;;;;;
2023/05/31 08:49:36;;;;;;;16.40;7.95;;;;;;;24.44;53.07;102494.06;4783537;29;20035;-93
2023/05/31 08:55:48;;;;;;;;;;;;;;;;;;;;;
2023/05/31 08:58:41;;;;;;;;;;;;;;;;;;;;;
2023/05/31 09:01:41;;;;;;;15.10;7.35;;;;;;;25.08;48.83;102486.00;4778956;29;20047;-91
2023/05/31 09:11:02;;;;;;;13.75;7.10;;;;;;;24.83;46.57;102480.38;4783008;29;20080;-92
2023/05/31 09:14:02;;;;;;;12.20;6.30;;;;;;;24.69;47.71;102481.19;4788039;29;20047;-93
2023/05/31 09:20:59;;;;;;;14.90;7.20;;;;;;;24.97;49.41;102476.97;4802074;29;20055;-92
2023/05/31 09:23:57;;;;;;;;;;;;;;;;;;;;;
2023/05/31 09:26:24;;;;;;;13.23;6.55;;;;;;;24.64;47.20;102482.34;4804555;29;20493;-91
2023/05/31 09:29:12;;;;;;;13.45;6.95;;;;;;;24.62;46.59;102461.25;4835220;29;20052;-93
2023/05/31 09:32:20;;;;;;;;;;;;;;;;;;;;;
2023/05/31 09:34:55;;;;;;;15.27;6.82;;;;;;;24.59;49.93;102471.16;4863318;29;20040;-92
2023/05/31 09:37:32;;;;;;;10.10;5.93;;;;;;;24.56;46.93;102469.56;4866785;29;20036;-92
2023/05/31 09:40:27;;;;;;;15.07;7.45;;;;;;;24.46;47.33;102460.38;4867970;29;20144;-92
2023/05/31 09:43:25;;;;;;;;;;;;;;;;;;;;;
2023/05/31 09:45:54;;;;;;;12.55;6.00;;;;;;;24.47;46.23;102448.00;4867670;29;19919;-92
2023/05/31 09:58:00;;;;;;;11.88;5.82;;;;;;;24.35;48.31;102442.44;4866108;29;20052;-91
2023/05/31 10:00:43;;;;;;;13.30;6.50;;;;;;;24.33;47.16;102438.16;4879093;29;20045;-95
2023/05/31 10:03:17;;;;;;;13.75;6.40;;;;;;;24.16;45.71;102438.19;4873415;29;20045;-93
2023/05/31 10:05:46;;;;;;;11.43;5.90;;;;;;;24.10;47.75;102435.88;4874301;29;20052;-93
2023/05/31 10:08:33;;;;;;;12.25;6.20;;;;;;;24.13;47.41;102431.28;4872968;29;20037;-93
2023/05/31 10:11:17;;;;;;;13.52;6.45;;;;;;;24.14;46.04;102437.44;4853237;29;20060;-94
2023/05/31 10:14:29;;;;;;;9.70;5.25;;;;;;;24.17;45.09;102443.41;4877815;29;20092;-94
2023/05/31 10:20:18;;;;;;;;;;;;;;;;;;;;;
2023/05/31 10:23:17;;;;;;;9.75;5.40;;;;;;;24.22;45.63;102436.13;4873604;29;20686;-94
2023/05/31 10:25:58;;;;;;;9.45;5.35;;;;;;;24.23;46.37;102431.66;4872014;29;20051;-93
2023/05/31 10:29:12;;;;;;;10.63;5.50;;;;;;;24.30;46.07;102427.72;4872372;29;20451;-92
2023/05/31 10:31:57;;;;;;;13.27;5.90;;;;;;;24.19;46.13;102424.78;4861405;29;20097;-92
2023/05/31 10:34:40;;;;;;;;;;;;;;;;;;;;;
2023/05/31 10:37:20;;;;;;;8.02;4.00;;;;;;;24.32;48.40;102404.63;4869766;29;20608;-92
2023/05/31 10:40:36;;;;;;;11.02;4.10;;;;;;;24.42;44.68;102411.16;4879296;29;20036;-92
2023/05/31 10:43:17;;;;;;;7.78;4.00;;;;;;;24.35;44.32;102408.00;4863624;29;20105;-91
2023/05/31 10:46:13;;;;;;;8.40;4.47;;;;;;;24.30;45.09;102398.56;4896248;29;20126;-91
2023/05/31 10:48:53;;;;;;;9.93;4.35;;;;;;;24.36;43.89;102406.19;4870798;29;20270;-92
2023/05/31 10:51:45;;;;;;;6.47;3.55;;;;;;;24.10;43.14;102397.00;4867648;29;20037;-93
2023/05/31 10:54:30;;;;;;;7.38;3.35;;;;;;;23.98;43.47;102384.44;4868943;29;20038;-92
2023/05/31 10:57:19;;;;;;;9.52;4.40;;;;;;;23.93;43.64;102390.00;4870205;29;20131;-92
2023/05/31 10:59:45;;;;;;;8.13;4.20;;;;;;;23.96;45.37;102392.47;4870830;29;20048;-93
2023/05/31 11:02:11;;;;;;;7.80;3.80;;;;;;;23.92;43.52;102390.94;4869955;29;20037;-93
2023/05/31 11:04:37;;;;;;;7.13;3.72;;;;;;;23.93;43.62;102376.75;4868200;29;20037;-93
2023/05/31 11:07:25;;;;;;;10.57;3.80;;;;;;;24.00;43.75;102379.91;4871575;29;20045;-92
2023/05/31 11:10:13;;;;;;;12.68;3.58;;;;;;;24.19;44.57;102382.38;4870292;29;20128;-93
2023/05/31 11:12:47;;;;;;;27.77;4.35;;;;;;;24.21;42.99;102375.25;4873268;29;20044;-91
2023/05/31 11:15:16;;;;;;;12.27;3.35;;;;;;;24.31;44.39;102371.13;4870992;29;20059;-92
2023/05/31 11:17:57;;;;;;;13.93;3.80;;;;;;;24.25;43.22;102367.03;4866972;29;20053;-93
2023/05/31 11:20:26;;;;;;;12.73;3.60;;;;;;;24.18;43.62;102370.94;4871448;29;20046;-91
2023/05/31 11:23:17;;;;;;;7.15;3.50;;;;;;;24.26;43.72;102378.47;4867473;29;20121;-93
2023/05/31 11:25:43;;;;;;;9.68;4.05;;;;;;;24.08;44.45;102369.75;4860083;29;20208;-93
2023/05/31 11:29:08;;;;;;;;;;;;;;;;;;;;;
2023/05/31 11:31:50;;;;;;;7.50;3.90;;;;;;;24.06;42.55;102373.41;4869062;29;20165;-94
2023/05/31 11:34:49;;;;;;;9.82;4.07;;;;;;;23.97;43.61;102377.44;4875702;29;20379;-94
2023/05/31 11:37:26;;;;;;;8.85;4.05;;;;;;;23.88;45.27;102368.19;4865185;29;20105;-93
2023/05/31 11:40:12;;;;;;;11.30;4.03;;;;;;;23.91;45.43;102365.38;4868997;29;20045;-94
2023/05/31 11:42:52;;;;;;;13.68;4.40;;;;;;;23.97;46.88;102362.38;4868899;29;20097;-93
2023/05/31 11:45:26;;;;;;;14.98;4.50;;;;;;;23.98;45.37;102363.25;4872139;29;20040;-96
2023/05/31 11:48:30;;;;;;;9.90;4.15;;;;;;;24.05;44.82;102375.22;4870601;29;20061;-94
2023/05/31 11:52:06;;;;;;;8.35;4.15;;;;;;;24.09;44.25;102367.97;4869715;29;20068;-93
2023/05/31 11:55:18;;;;;;;7.55;3.70;;;;;;;24.07;45.35;102362.75;4871446;29;20084;-95
2023/05/31 12:02:04;;;;;;;;;;;;;;;;;;;;;
2023/05/31 12:09:07;;;;;;;8.75;4.00;;;;;;;23.95;45.01;102336.94;4850382;29;20041;-94
2023/05/31 12:12:03;;;;;;;;;;;;;;;;;;;;;
2023/05/31 12:18:27;;;;;;;9.07;3.78;;;;;;;23.97;43.89;102333.25;4847579;29;20046;-95
2023/05/31 12:25:22;;;;;;;12.40;3.80;;;;;;;23.99;45.70;102314.63;4795808;29;20073;-96
2023/05/31 12:34:50;;;;;;;9.00;3.47;;;;;;;24.04;42.48;102296.66;4798845;29;20058;-94
2023/05/31 12:38:05;;;;;;;;;;;;;;;;;;;;;
2023/05/31 12:41:35;;;;;;;8.85;3.83;;;;;;;24.10;43.95;102285.72;4795380;29;20043;-94
2023/05/31 12:44:42;;;;;;;8.80;3.55;;;;;;;24.03;43.57;102297.59;4783212;29;20062;-95
2023/05/31 12:47:18;;;;;;;9.02;3.58;;;;;;;23.97;43.07;102284.69;4746550;30;20048;-95
2023/05/31 12:50:25;;;;;;;;;;;;;;;;;;;;;
2023/05/31 12:53:00;;;;;;;7.15;3.65;;;;;;;24.03;43.90;102289.66;4803046;29;20196;-94
2023/05/31 12:55:44;;;;;;;8.80;3.72;;;;;;;24.13;44.62;102290.84;4823064;29;20057;-94
2023/05/31 12:58:33;;;;;;;6.80;3.60;;;;;;;24.12;42.85;102290.94;4846849;29;20100;-95
2023/05/31 13:01:01;;;;;;;11.30;3.50;;;;;;;24.20;43.20;102286.94;4848892;29;20442;-94
2023/05/31 13:04:15;;;;;;;9.52;3.92;;;;;;;24.31;42.50;102279.19;4847697;29;20036;-93
2023/05/31 13:10:08;;;;;;;;;;;;;;;;;;;;;
2023/05/31 13:16:13;;;;;;;8.68;3.28;;;;;;;24.41;44.28;102271.56;4859507;29;21580;-93
2023/05/31 13:19:29;;;;;;;8.18;3.53;;;;;;;24.36;43.97;102273.66;4865465;29;20048;-94
2023/05/31 13:22:20;;;;;;;10.98;3.80;;;;;;;24.40;42.74;102272.50;4864837;29;20033;-93
2023/05/31 13:32:48;;;;;;;;;;;;;;;;;;;;;
2023/05/31 13:35:39;;;;;;;;;;;;;;;;;;;;;
2023/05/31 13:41:38;;;;;;;9.15;3.60;;;;;;;24.19;43.22;102263.13;4805633;29;20125;-93
2023/05/31 13:45:36;;;;;;;10.65;3.72;;;;;;;24.19;43.59;102268.44;4844618;29;20045;-96
2023/05/31 13:48:16;;;;;;;6.85;3.45;;;;;;;24.19;44.03;102248.13;4827231;29;20034;-95
2023/05/31 13:50:48;;;;;;;11.38;3.70;;;;;;;24.17;43.39;102257.91;4783137;29;20051;-96
2023/05/31 13:54:09;;;;;;;6.82;3.42;;;;;;;24.17;44.45;102254.41;4800292;29;20042;-94
2023/05/31 13:57:19;;;;;;;9.15;3.85;;;;;;;24.21;42.76;102261.28;4788233;29;20047;-94
2023/05/31 14:00:38;;;;;;;10.48;3.30;;;;;;;24.19;43.58;102255.19;4769255;29;20055;-96
2023/05/31 14:07:03;;;;;;;;;;;;;;;;;;;;;